Time;durP1;ratioP1;P1;durP2;ratioP2;P2;SDS_P1;SDS_P2;PMS_P1;PMS_P2;Temp;Humidity;BMP_temperature;BMP_pressure;BME280_temperature;BME280_humidity;BME280_pressure;Samples;Min_cycle;Max_cycle;Signal;HPM_P1;HPM_P2
2021/06/05 00:00:42;;;;;;;2.90;1.70;;;;;;;11.11;97.44;93848.78;4992522;28;19928;-87
2021/06/05 00:03:10;;;;;;;2.55;1.80;;;;;;;10.93;97.89;93829.59;4992830;28;20491;-86
2021/06/05 00:05:41;;;;;;;2.63;1.73;;;;;;;11.05;98.38;93851.16;4984360;28;20057;-85
2021/06/05 00:08:09;;;;;;;2.17;1.65;;;;;;;10.99;98.29;93858.84;4993231;28;20069;-85
2021/06/05 00:10:39;;;;;;;2.08;1.33;;;;;;;10.91;98.25;93862.41;4992887;28;20061;-85
2021/06/05 00:13:06;;;;;;;2.47;1.67;;;;;;;10.92;98.53;93859.63;4992984;28;20054;-86
2021/06/05 00:15:36;;;;;;;2.15;1.52;;;;;;;10.85;98.23;93863.97;4992485;28;20050;-87
2021/06/05 00:18:03;;;;;;;3.08;1.98;;;;;;;10.53;98.80;93825.16;4992832;28;20050;-85
2021/06/05 00:20:31;;;;;;;2.53;1.88;;;;;;;10.74;99.05;93857.63;4992826;28;20042;-85
2021/06/05 00:23:00;;;;;;;3.10;1.83;;;;;;;10.64;99.74;93850.28;4992563;28;20047;-85
2021/06/05 00:25:28;;;;;;;3.08;2.60;;;;;;;10.73;99.42;93863.75;4992550;28;20042;-86
2021/06/05 00:27:55;;;;;;;2.33;1.73;;;;;;;10.72;99.56;93857.03;4992683;28;20047;-83
2021/06/05 00:30:22;;;;;;;2.72;1.58;;;;;;;10.66;99.84;93855.25;4992176;28;20133;-84
2021/06/05 00:32:49;;;;;;;2.50;1.92;;;;;;;10.67;100.00;93862.75;4992129;28;20066;-85
2021/06/05 00:35:15;;;;;;;4.28;1.90;;;;;;;10.63;100.00;93859.00;4992529;28;20394;-85
2021/06/05 00:37:43;;;;;;;5.22;2.38;;;;;;;10.60;100.00;93854.22;4992436;28;20046;-85
2021/06/05 00:40:12;;;;;;;4.03;1.98;;;;;;;10.57;100.00;93857.19;4992423;28;20375;-86
2021/06/05 00:42:38;;;;;;;3.15;2.00;;;;;;;10.42;100.00;93844.47;4992176;28;20050;-86
2021/06/05 00:45:07;;;;;;;4.05;2.25;;;;;;;10.49;100.00;93847.88;4992115;28;20053;-85
2021/06/05 00:47:33;;;;;;;2.97;1.67;;;;;;;10.52;100.00;93855.19;4991926;28;20042;-86
2021/06/05 00:49:59;;;;;;;;;;;;;;;10.53;100.00;93856.00;4992279;28;20046;-85
2021/06/05 00:52:29;;;;;;;2.75;1.65;;;;;;;10.47;100.00;93862.69;4992208;28;19925;-85
2021/06/05 00:54:57;;;;;;;3.65;2.30;;;;;;;10.48;100.00;93858.34;4991848;28;20125;-85
2021/06/05 00:57:24;;;;;;;4.28;2.05;;;;;;;10.40;100.00;93851.56;4991786;28;20494;-82
2021/06/05 00:59:51;;;;;;;3.60;2.30;;;;;;;10.34;100.00;93839.50;4992196;28;20046;-86
2021/06/05 01:02:17;;;;;;;5.45;3.13;;;;;;;10.42;100.00;93860.66;4991899;28;20047;-83
2021/06/05 01:04:44;;;;;;;3.90;2.42;;;;;;;10.43;100.00;93869.97;4991806;28;20057;-82
2021/06/05 01:07:16;;;;;;;3.50;2.17;;;;;;;10.37;100.00;93857.88;4991786;28;20497;-82
2021/06/05 01:09:55;;;;;;;3.70;2.42;;;;;;;10.31;100.00;93878.41;4990664;28;20505;-82
2021/06/05 01:12:31;;;;;;;3.80;2.47;;;;;;;10.12;100.00;93865.28;4991466;28;20486;-82
2021/06/05 01:15:05;;;;;;;2.47;1.52;;;;;;;10.22;100.00;93880.31;4991694;28;20057;-82
2021/06/05 01:17:35;;;;;;;5.70;2.40;;;;;;;10.18;100.00;93890.19;4991872;28;20046;-82
2021/06/05 01:20:07;;;;;;;2.38;1.63;;;;;;;10.18;100.00;93886.84;4991671;28;20042;-85
2021/06/05 01:22:59;;;;;;;2.42;1.70;;;;;;;10.15;100.00;93885.44;4991459;28;20093;-84
2021/06/05 01:25:59;;;;;;;2.45;1.98;;;;;;;10.02;100.00;93881.84;4980940;28;20074;-84
2021/06/05 01:28:34;;;;;;;2.08;1.80;;;;;;;9.99;100.00;93883.97;4945415;28;20042;-83
2021/06/05 01:31:06;;;;;;;2.63;1.50;;;;;;;9.96;100.00;93887.69;4991428;28;20394;-84
2021/06/05 01:33:35;;;;;;;2.78;1.73;;;;;;;9.93;100.00;93882.94;4991189;28;20561;-84
2021/06/05 01:36:03;;;;;;;2.78;1.55;;;;;;;9.91;100.00;93887.50;4991356;28;20049;-84
2021/06/05 01:38:33;;;;;;;2.80;2.13;;;;;;;9.86;100.00;93884.69;4991494;28;20046;-84
2021/06/05 01:41:01;;;;;;;2.75;1.58;;;;;;;9.84;100.00;93876.38;4991115;28;20109;-85
2021/06/05 01:43:29;;;;;;;3.17;1.73;;;;;;;9.78;100.00;93877.94;4990952;28;20054;-82
2021/06/05 01:45:59;;;;;;;3.50;2.20;;;;;;;9.78;100.00;93880.50;4991018;28;20050;-83
2021/06/05 01:48:25;;;;;;;2.30;1.33;;;;;;;9.50;100.00;93842.81;4991202;28;21359;-82
2021/06/05 01:50:52;;;;;;;2.33;1.25;;;;;;;9.78;100.00;93875.38;4990806;28;20086;-82
2021/06/05 01:53:23;;;;;;;3.40;1.50;;;;;;;9.75;100.00;93873.16;4990674;28;20046;-82
2021/06/05 01:55:54;;;;;;;2.45;1.70;;;;;;;9.75;100.00;93873.97;4990840;28;21294;-83
2021/06/05 01:58:26;;;;;;;2.20;1.58;;;;;;;9.78;100.00;93869.44;4990696;28;20090;-82
2021/06/05 02:00:56;;;;;;;2.22;1.60;;;;;;;9.70;100.00;93875.50;4990921;28;20426;-82
2021/06/05 02:03:25;;;;;;;2.63;1.52;;;;;;;9.67;100.00;93879.22;4990731;28;20057;-84
2021/06/05 02:05:52;;;;;;;2.72;1.90;;;;;;;9.52;100.00;93845.19;4990668;28;20056;-84
2021/06/05 02:08:22;;;;;;;2.92;1.80;;;;;;;9.59;100.00;93864.00;4991043;28;20425;-84
2021/06/05 02:10:49;;;;;;;1.75;1.33;;;;;;;9.59;100.00;93869.13;4990805;28;20406;-84
2021/06/05 02:13:19;;;;;;;3.38;1.73;;;;;;;9.54;100.00;93872.22;4990779;28;20058;-84
2021/06/05 02:15:49;;;;;;;3.45;1.80;;;;;;;9.53;100.00;93864.75;4990273;28;20066;-84
2021/06/05 02:18:20;;;;;;;2.63;1.77;;;;;;;9.43;100.00;93854.78;4990415;28;20046;-84
2021/06/05 02:20:53;;;;;;;4.20;1.98;;;;;;;9.51;100.00;93862.34;4990293;28;20434;-83
2021/06/05 02:23:23;;;;;;;3.08;1.95;;;;;;;9.40;100.00;93852.63;4990968;28;20053;-84
2021/06/05 02:25:50;;;;;;;2.17;1.48;;;;;;;9.32;100.00;93845.84;4991919;28;20038;-84
2021/06/05 02:28:17;;;;;;;2.20;1.70;;;;;;;9.47;100.00;93874.75;4993017;28;20488;-85
2021/06/05 02:30:44;;;;;;;1.80;1.38;;;;;;;9.42;100.00;93871.97;4990050;28;20094;-84
2021/06/05 02:33:10;;;;;;;;;;;;;;;9.41;100.00;93869.56;4990769;28;20053;-85
2021/06/05 02:35:40;;;;;;;2.42;1.63;;;;;;;9.31;100.00;93867.34;4990027;28;19929;-84
2021/06/05 02:38:08;;;;;;;2.92;1.70;;;;;;;9.06;100.00;93844.66;4990074;28;20053;-85
2021/06/05 02:40:37;;;;;;;2.25;1.30;;;;;;;8.99;100.00;93842.03;4990478;28;20042;-85
2021/06/05 02:43:06;;;;;;;2.47;1.70;;;;;;;9.02;100.00;93846.78;4990165;28;20047;-85
2021/06/05 02:45:38;;;;;;;2.28;1.88;;;;;;;9.00;100.00;93858.19;4990366;28;20042;-85
2021/06/05 02:48:06;;;;;;;3.55;1.48;;;;;;;9.03;100.00;93865.53;4989937;28;20046;-85
2021/06/05 02:50:35;;;;;;;7.00;2.97;;;;;;;8.98;100.00;93855.03;4989904;28;20049;-84
2021/06/05 02:53:03;;;;;;;2.90;2.03;;;;;;;9.07;100.00;93859.03;4989924;28;20056;-84
2021/06/05 02:55:30;;;;;;;3.47;1.77;;;;;;;9.08;100.00;93858.09;4990032;28;20071;-83
2021/06/05 02:57:56;;;;;;;3.00;1.80;;;;;;;9.09;100.00;93851.97;4989789;28;20414;-83
2021/06/05 03:00:26;;;;;;;;;;;;;;;9.13;100.00;93855.75;4990223;28;20042;-83
2021/06/05 03:02:53;;;;;;;2.40;1.77;;;;;;;9.11;100.00;93851.81;4989937;28;19917;-83
2021/06/05 03:05:19;;;;;;;4.72;1.95;;;;;;;9.00;100.00;93835.94;4989669;28;20066;-83
2021/06/05 03:07:49;;;;;;;2.85;1.80;;;;;;;9.13;100.00;93855.75;4990022;28;20042;-83
2021/06/05 03:10:17;;;;;;;3.50;2.30;;;;;;;9.12;100.00;93849.03;4990134;28;20042;-83
2021/06/05 03:12:44;;;;;;;3.35;2.15;;;;;;;9.13;100.00;93854.97;4990037;28;20053;-83
2021/06/05 03:15:11;;;;;;;3.35;2.38;;;;;;;9.13;100.00;93849.84;4989803;28;20102;-82
2021/06/05 03:17:37;;;;;;;2.78;2.35;;;;;;;9.17;100.00;93856.97;4989560;28;20093;-81
2021/06/05 03:20:06;;;;;;;6.18;2.25;;;;;;;9.25;100.00;93847.56;4990092;28;20089;-81
2021/06/05 03:22:32;;;;;;;4.22;1.98;;;;;;;9.24;100.00;93851.91;4990025;28;20043;-81
2021/06/05 03:24:58;;;;;;;;;;;;;;;9.30;100.00;93850.38;4990186;28;20371;-81
2021/06/05 03:27:26;;;;;;;1.83;1.20;;;;;;;9.34;100.00;93846.44;4989587;28;19921;-81
2021/06/05 03:29:52;;;;;;;9.63;2.08;;;;;;;9.30;100.00;93840.13;4989530;28;20042;-81
2021/06/05 03:32:18;;;;;;;;;;;;;;;9.39;100.00;93856.16;4991912;28;20046;-81
2021/06/05 03:34:45;;;;;;;4.43;2.58;;;;;;;9.39;100.00;93851.03;4993717;28;20325;-82
2021/06/05 03:37:11;;;;;;;4.60;2.80;;;;;;;9.42;100.00;93848.09;4993654;28;20133;-82
2021/06/05 03:39:37;;;;;;;;;;;;;;;9.45;100.00;93852.84;4993963;28;20410;-81
2021/06/05 03:42:05;;;;;;;2.92;2.10;;;;;;;9.44;100.00;93853.84;4993462;28;20323;-81
2021/06/05 03:44:32;;;;;;;5.03;2.75;;;;;;;9.51;100.00;93854.66;4993623;28;20046;-81
2021/06/05 03:46:59;;;;;;;3.40;2.13;;;;;;;9.56;100.00;93849.78;4993071;28;20057;-81
2021/06/05 03:49:25;;;;;;;6.43;2.67;;;;;;;9.57;100.00;93835.16;4993916;28;20073;-81
2021/06/05 03:51:51;;;;;;;;;;;;;;;9.72;100.00;93848.69;4994560;28;20058;-81
2021/06/05 03:54:18;;;;;;;3.47;2.30;;;;;;;9.78;100.00;93846.34;4993337;28;20432;-81
2021/06/05 03:56:44;;;;;;;;;;;;;;;9.87;100.00;93847.78;4994063;28;20054;-81
2021/06/05 03:59:11;;;;;;;3.63;2.28;;;;;;;9.90;100.00;93842.25;4993086;28;19918;-82
2021/06/05 04:01:39;;;;;;;3.13;2.58;;;;;;;10.00;100.00;93847.84;4984803;28;20057;-83
2021/06/05 04:04:05;;;;;;;7.65;2.50;;;;;;;10.07;100.00;93844.50;4992785;28;20066;-82
2021/06/05 04:06:32;;;;;;;8.18;3.25;;;;;;;10.05;100.00;93839.59;4992813;28;20054;-82
2021/06/05 04:08:59;;;;;;;9.00;3.88;;;;;;;10.14;100.00;93848.69;4993035;28;20045;-82
2021/06/05 04:11:27;;;;;;;9.57;3.50;;;;;;;10.16;100.00;93838.25;4989230;28;20435;-80
2021/06/05 04:13:54;;;;;;;6.45;3.42;;;;;;;10.22;100.00;93842.63;4987075;28;20442;-82
2021/06/05 04:16:22;;;;;;;6.00;3.03;;;;;;;10.22;100.00;93824.63;4992158;28;20042;-81
2021/06/05 04:18:50;;;;;;;5.95;3.63;;;;;;;10.36;100.00;93824.69;4988206;28;20505;-83
2021/06/05 04:21:20;;;;;;;5.03;3.50;;;;;;;10.45;100.00;93821.00;4985177;28;20447;-82
2021/06/05 04:23:46;;;;;;;5.95;3.05;;;;;;;10.56;100.00;93824.78;4991679;28;20042;-82
2021/06/05 04:26:14;;;;;;;6.65;2.75;;;;;;;10.64;100.00;93813.53;4992704;28;20057;-82
2021/06/05 04:28:42;;;;;;;5.60;3.53;;;;;;;10.85;100.00;93835.72;4990804;28;20053;-82
2021/06/05 04:31:09;;;;;;;6.22;3.55;;;;;;;10.74;99.48;93800.31;4988843;28;20054;-84
2021/06/05 04:33:36;;;;;;;7.15;2.72;;;;;;;10.95;99.48;93819.91;4992765;28;20097;-85
2021/06/05 04:36:08;;;;;;;5.95;2.85;;;;;;;11.00;99.96;93819.31;4985770;28;20047;-85
2021/06/05 04:38:34;;;;;;;4.72;2.65;;;;;;;11.09;99.33;93818.13;4990846;28;20073;-85
2021/06/05 04:41:01;;;;;;;4.32;2.90;;;;;;;10.64;98.24;93742.38;4992454;28;20053;-86
2021/06/05 04:43:27;;;;;;;5.88;3.35;;;;;;;11.14;98.51;93796.97;4992463;28;20053;-86
2021/06/05 04:45:54;;;;;;;2.92;2.03;;;;;;;11.21;97.98;93801.13;4992621;28;20090;-85
2021/06/05 04:48:21;;;;;;;5.28;3.35;;;;;;;11.22;97.96;93787.25;4991929;28;20053;-86
2021/06/05 04:50:47;;;;;;;3.72;2.65;;;;;;;11.44;98.32;93797.34;4992010;28;20403;-85
2021/06/05 04:53:15;;;;;;;3.75;2.47;;;;;;;11.52;98.42;93795.56;4991989;28;20494;-85
2021/06/05 04:55:42;;;;;;;3.50;2.10;;;;;;;11.51;98.74;93776.75;4990984;28;20486;-85
2021/06/05 04:58:08;;;;;;;4.13;2.22;;;;;;;11.59;98.71;93776.56;4991867;28;20054;-87
2021/06/05 05:00:36;;;;;;;3.28;2.30;;;;;;;11.79;97.74;93798.09;4992034;28;20069;-86
2021/06/05 05:03:03;;;;;;;10.25;3.25;;;;;;;11.92;98.15;93799.81;4991972;28;20050;-85
2021/06/05 05:05:30;;;;;;;6.97;3.10;;;;;;;11.87;96.99;93785.78;4991761;28;20056;-85
2021/06/05 05:07:57;;;;;;;6.27;3.50;;;;;;;11.85;97.92;93756.09;4811734;28;5001210;-86
2021/06/05 05:10:28;;;;;;;4.47;2.95;;;;;;;12.15;99.65;93786.50;4992347;28;20313;-85
2021/06/05 05:12:54;;;;;;;8.73;4.50;;;;;;;12.09;98.63;93762.34;4988706;28;20105;-86
2021/06/05 05:15:21;;;;;;;7.00;3.47;;;;;;;12.34;97.03;93782.25;4991638;28;20054;-85
2021/06/05 05:17:48;;;;;;;6.18;3.45;;;;;;;12.59;97.72;93786.66;4991608;28;20046;-85
2021/06/05 05:20:18;;;;;;;5.88;2.75;;;;;;;12.67;96.05;93791.56;4991718;28;20163;-86
2021/06/05 05:22:44;;;;;;;5.45;2.78;;;;;;;12.87;97.05;93788.06;4991717;28;20050;-86
2021/06/05 05:25:12;;;;;;;5.43;3.22;;;;;;;12.89;95.77;93762.88;4991466;28;20043;-87
2021/06/05 05:27:40;;;;;;;7.32;4.88;;;;;;;13.17;95.74;93786.66;4991324;28;20051;-87
2021/06/05 05:30:09;;;;;;;8.57;4.15;;;;;;;13.14;96.86;93774.97;4983840;28;20419;-87
2021/06/05 05:32:36;;;;;;;11.32;5.68;;;;;;;13.47;96.76;93788.63;4991488;28;20437;-86
2021/06/05 05:35:03;;;;;;;12.48;6.35;;;;;;;13.59;94.96;93791.28;4991050;28;20058;-86
2021/06/05 05:37:30;;;;;;;9.90;5.13;;;;;;;13.71;95.32;93794.72;4973238;28;20489;-86
2021/06/05 05:39:56;;;;;;;;;;;;;;;13.82;94.33;93789.84;4970602;28;20057;-86
2021/06/05 05:42:22;;;;;;;15.75;6.70;;;;;;;13.60;95.73;93761.88;4971535;28;19918;-86
2021/06/05 05:44:50;;;;;;;21.58;8.48;;;;;;;13.93;95.54;93793.53;4971763;28;20062;-86
2021/06/05 05:47:16;;;;;;;12.15;6.22;;;;;;;13.98;96.03;93789.28;4971711;28;20043;-88
2021/06/05 05:49:43;;;;;;;13.90;5.03;;;;;;;14.27;94.88;93791.34;4971438;28;20402;-87
2021/06/05 05:52:09;;;;;;;;;;;;;;;14.12;93.31;93792.50;4973230;28;20102;-87
2021/06/05 05:54:35;;;;;;;12.38;4.82;;;;;;;13.96;93.13;93733.69;4971616;28;19969;-87
2021/06/05 05:57:02;;;;;;;12.13;6.63;;;;;;;14.41;90.77;93799.72;4984882;28;20577;-86
2021/06/05 05:59:28;;;;;;;5.75;3.90;;;;;;;14.66;89.98;93796.19;5010318;28;20045;-87
2021/06/05 06:01:56;;;;;;;5.55;3.33;;;;;;;14.70;87.95;93787.81;5010327;28;20490;-87
2021/06/05 06:04:22;;;;;;;6.63;3.83;;;;;;;14.98;88.63;93798.56;5010216;28;20504;-86
2021/06/05 06:06:48;;;;;;;;;;;;;;;15.23;88.71;93802.78;5010582;28;20038;-87
2021/06/05 06:09:16;;;;;;;14.30;4.55;;;;;;;15.31;86.53;93788.69;5010290;28;19917;-86
2021/06/05 06:11:46;;;;;;;4.13;2.90;;;;;;;15.62;83.20;93802.31;5010114;28;20048;-87
2021/06/05 06:14:12;;;;;;;8.85;4.60;;;;;;;15.68;82.82;93764.34;4990317;28;20046;-87
2021/06/05 06:16:39;;;;;;;8.45;3.75;;;;;;;16.09;83.77;93793.72;4990652;28;20034;-86
2021/06/05 06:19:07;;;;;;;7.50;4.07;;;;;;;16.27;81.90;93807.53;4990638;28;20046;-85
2021/06/05 06:21:34;;;;;;;7.13;3.63;;;;;;;16.84;81.33;93792.97;4990654;28;20422;-85
2021/06/05 06:24:00;;;;;;;5.03;3.70;;;;;;;17.23;79.35;93771.56;4989679;28;20042;-85
2021/06/05 06:26:30;;;;;;;;;;;;;;;17.70;77.62;93785.19;4990586;28;20422;-85
2021/06/05 06:28:59;;;;;;;6.40;2.70;;;;;;;18.09;75.10;93787.00;4990323;28;20442;-84
2021/06/05 06:31:25;;;;;;;11.50;2.75;;;;;;;18.43;72.57;93779.06;4990169;28;20046;-84
2021/06/05 06:33:52;;;;;;;6.47;3.15;;;;;;;18.93;71.06;93779.78;4990334;28;20446;-84
2021/06/05 06:36:21;;;;;;;6.15;2.95;;;;;;;19.08;67.87;93775.75;4990121;28;20042;-84
2021/06/05 06:38:50;;;;;;;8.05;3.17;;;;;;;18.93;70.16;93769.34;4990392;28;20056;-85
2021/06/05 06:41:19;;;;;;;10.48;3.70;;;;;;;19.67;68.20;93787.06;4990278;28;20046;-84
2021/06/05 06:43:46;;;;;;;5.05;2.80;;;;;;;19.90;64.92;93766.84;4989984;28;20054;-86
2021/06/05 06:46:17;;;;;;;6.72;2.58;;;;;;;20.10;65.15;93773.22;4990600;28;20046;-87
2021/06/05 06:48:44;;;;;;;4.60;2.13;;;;;;;20.13;62.76;93770.09;4998204;28;20046;-86
2021/06/05 06:51:10;;;;;;;7.03;3.45;;;;;;;20.48;62.54;93767.84;4995607;28;20450;-87
2021/06/05 06:53:38;;;;;;;5.32;2.10;;;;;;;20.39;62.50;93773.59;4993583;28;20050;-86
2021/06/05 06:56:06;;;;;;;6.38;3.03;;;;;;;20.42;61.60;93761.84;4989871;28;20109;-87
2021/06/05 06:58:33;;;;;;;5.70;3.20;;;;;;;20.20;61.46;93770.66;4989855;28;20096;-85
2021/06/05 07:00:59;;;;;;;7.97;3.42;;;;;;;20.75;62.39;93754.59;4990169;28;20042;-86
2021/06/05 07:03:25;;;;;;;4.93;2.30;;;;;;;21.04;59.94;93754.13;4990040;28;20042;-86
2021/06/05 07:05:52;;;;;;;5.85;2.10;;;;;;;21.53;58.53;93754.59;4989616;28;20050;-84
2021/06/05 07:08:21;;;;;;;6.20;1.77;;;;;;;21.93;57.46;93736.44;4993456;28;20077;-84
2021/06/05 07:10:51;;;;;;;7.03;3.20;;;;;;;22.44;54.07;93752.94;4994023;28;20046;-85
2021/06/05 07:13:18;;;;;;;5.63;2.53;;;;;;;22.08;55.43;93742.66;4993788;28;20058;-86
2021/06/05 07:15:44;;;;;;;2.95;1.83;;;;;;;;;;4993820;28;20053;-86
2021/06/05 07:18:10;;;;;;;;;;;;;;;21.51;56.48;93748.81;4994027;28;20498;-86
2021/06/05 07:20:37;;;;;;;3.38;1.88;;;;;;;21.69;57.11;93718.72;4993696;28;19932;-86
2021/06/05 07:23:04;;;;;;;3.67;1.67;;;;;;;22.35;56.74;93739.66;4993585;28;20508;-85
2021/06/05 07:25:31;;;;;;;2.45;1.92;;;;;;;22.25;54.98;93739.69;4993731;28;20098;-86
2021/06/05 07:28:09;;;;;;;4.90;2.78;;;;;;;22.57;53.91;93748.97;4993545;28;21284;-86
2021/06/05 07:30:35;;;;;;;4.22;2.42;;;;;;;23.05;55.21;93731.88;4993346;28;20046;-85
2021/06/05 07:33:01;;;;;;;2.47;1.73;;;;;;;23.34;52.81;93746.84;4993766;28;20057;-86
2021/06/05 07:35:28;;;;;;;3.35;1.33;;;;;;;23.18;52.76;93712.09;4993367;28;20046;-88
2021/06/05 07:37:54;;;;;;;4.75;2.15;;;;;;;23.68;52.45;93753.06;4993066;28;20053;-87
2021/06/05 07:40:23;;;;;;;2.67;1.60;;;;;;;23.57;52.38;93747.16;4993123;28;20490;-86
2021/06/05 07:42:50;;;;;;;2.47;1.40;;;;;;;23.75;52.33;93756.16;4993600;28;20046;-87
2021/06/05 07:45:21;;;;;;;3.70;3.05;;;;;;;23.87;50.75;93750.50;4994439;28;20046;-88
2021/06/05 07:47:48;;;;;;;4.47;2.30;;;;;;;24.05;46.50;93737.69;4993424;28;20062;-86
2021/06/05 07:50:15;;;;;;;4.40;1.60;;;;;;;24.55;48.49;93740.75;4993281;28;20046;-83
2021/06/05 07:52:41;;;;;;;5.13;1.55;;;;;;;24.71;46.28;93742.38;4993046;28;20053;-84
2021/06/05 07:55:09;;;;;;;1.48;0.98;;;;;;;24.93;44.98;93744.41;4993129;28;20047;-84
2021/06/05 07:57:35;;;;;;;2.13;1.13;;;;;;;24.90;43.78;93748.41;4993256;28;20061;-82
2021/06/05 08:00:03;;;;;;;1.73;1.15;;;;;;;25.16;44.19;93737.47;4992908;28;20046;-82
2021/06/05 08:02:31;;;;;;;2.95;1.25;;;;;;;24.87;40.67;93748.19;4992774;28;20042;-82
2021/06/05 08:04:57;;;;;;;3.08;1.10;;;;;;;24.02;43.28;93745.06;4993014;28;20050;-83
2021/06/05 08:07:23;;;;;;;2.00;1.17;;;;;;;24.65;43.13;93733.78;4992887;28;20042;-83
2021/06/05 08:09:50;;;;;;;9.48;2.80;;;;;;;25.09;43.35;93731.81;4993206;28;20054;-82
2021/06/05 08:12:16;;;;;;;4.63;1.90;;;;;;;25.30;42.84;93703.34;4992686;28;20051;-81
2021/06/05 08:14:42;;;;;;;2.25;1.10;;;;;;;25.03;41.63;93740.84;4993120;28;20082;-84
2021/06/05 08:17:09;;;;;;;2.38;1.20;;;;;;;24.09;42.13;93738.72;4992465;28;20045;-82
2021/06/05 08:19:37;;;;;;;1.58;0.80;;;;;;;23.82;42.83;93746.09;4992740;28;20072;-81
2021/06/05 08:22:04;;;;;;;1.73;1.23;;;;;;;23.31;42.58;93739.50;4993027;28;20393;-81
2021/06/05 08:24:30;;;;;;;2.13;1.00;;;;;;;23.31;42.55;93734.25;4992875;28;20042;-81
2021/06/05 08:26:57;;;;;;;1.70;0.77;;;;;;;22.61;44.77;93730.88;4992671;28;20125;-82
2021/06/05 08:29:23;;;;;;;6.95;0.98;;;;;;;22.69;44.47;93736.31;4992670;28;20042;-82
2021/06/05 08:31:50;;;;;;;1.58;0.98;;;;;;;22.37;43.34;93734.16;4992475;28;20042;-82
2021/06/05 08:34:16;;;;;;;3.15;1.40;;;;;;;22.45;45.63;93715.25;4992348;28;20691;-82
2021/06/05 08:36:45;;;;;;;1.67;1.08;;;;;;;22.56;44.49;93734.31;4988637;28;20394;-81
2021/06/05 08:39:13;;;;;;;5.57;1.40;;;;;;;22.52;46.29;93722.78;4990493;28;20500;-81
2021/06/05 08:41:43;;;;;;;1.27;0.80;;;;;;;22.57;44.38;93727.25;4991723;28;20062;-82
2021/06/05 08:44:13;;;;;;;2.20;1.33;;;;;;;22.49;45.49;93737.22;4992386;28;20042;-83
2021/06/05 08:46:42;;;;;;;1.77;1.08;;;;;;;22.73;45.59;93722.69;4992357;28;20109;-82
2021/06/05 08:49:16;;;;;;;1.90;0.85;;;;;;;22.77;45.39;93734.19;4992333;28;20069;-82
2021/06/05 08:51:55;;;;;;;2.00;1.08;;;;;;;22.80;44.20;93720.53;4992012;28;21076;-82
2021/06/05 08:54:33;;;;;;;2.28;1.17;;;;;;;22.57;42.57;93728.03;4992095;28;20042;-82
2021/06/05 08:57:04;;;;;;;2.20;1.20;;;;;;;22.67;44.73;93725.34;4991859;28;20057;-82
2021/06/05 08:59:30;;;;;;;1.85;1.17;;;;;;;22.58;45.07;93711.25;4992131;28;20042;-83
2021/06/05 09:01:56;;;;;;;1.77;0.90;;;;;;;22.71;41.78;93715.09;4991607;28;20082;-82
2021/06/05 09:04:24;;;;;;;1.60;0.90;;;;;;;23.38;41.33;93707.75;4992073;28;20398;-82
2021/06/05 09:06:56;;;;;;;2.17;0.85;;;;;;;23.98;40.80;93704.69;4991635;28;20513;-82
2021/06/05 09:09:25;;;;;;;3.40;1.77;;;;;;;24.53;43.23;93681.69;4991628;28;20042;-81
2021/06/05 09:11:52;;;;;;;2.45;1.40;;;;;;;25.20;41.09;93682.47;4991451;28;20050;-81
2021/06/05 09:14:19;;;;;;;4.45;1.23;;;;;;;25.84;39.79;93694.22;4991405;28;20046;-81
2021/06/05 09:16:47;;;;;;;2.45;1.52;;;;;;;26.15;40.54;93683.06;4991811;28;20047;-81
2021/06/05 09:19:32;;;;;;;2.58;1.25;;;;;;;26.74;38.78;93690.19;4991712;28;20554;-81
2021/06/05 09:22:19;;;;;;;3.10;1.13;;;;;;;27.17;37.27;93680.22;4991389;28;20483;-81
2021/06/05 09:24:47;;;;;;;1.92;1.02;;;;;;;27.29;34.72;93677.78;4992245;28;20046;-81
2021/06/05 09:27:22;;;;;;;2.20;1.20;;;;;;;27.53;35.41;93675.88;4992140;28;20046;-80
2021/06/05 09:29:51;;;;;;;;;;;;;;;27.60;35.94;93674.34;4991037;28;20057;-81
2021/06/05 09:32:19;;;;;;;1.90;1.10;;;;;;;27.58;34.14;93658.06;4991335;28;19933;-81
2021/06/05 09:34:48;;;;;;;1.52;0.98;;;;;;;28.07;35.03;93677.56;4991449;28;20057;-81
2021/06/05 09:37:44;;;;;;;1.77;1.05;;;;;;;28.12;32.76;93654.44;4991190;28;20553;-81
2021/06/05 09:40:24;;;;;;;1.60;0.90;;;;;;;27.62;31.42;93655.56;4946274;28;20053;-81
2021/06/05 09:42:53;;;;;;;3.72;1.58;;;;;;;27.92;34.86;93661.09;4991071;28;20043;-81
2021/06/05 09:45:31;;;;;;;2.10;1.10;;;;;;;27.57;33.61;93663.59;4991260;28;20049;-81
2021/06/05 09:48:19;;;;;;;2.03;1.23;;;;;;;27.13;34.13;93661.59;4991150;28;20140;-81
2021/06/05 09:50:47;;;;;;;2.88;1.27;;;;;;;26.43;34.56;93659.31;4991185;28;20438;-81
2021/06/05 09:53:17;;;;;;;1.77;1.00;;;;;;;25.49;36.49;93623.56;4991114;28;20050;-81
2021/06/05 09:55:45;;;;;;;1.55;0.90;;;;;;;25.15;37.43;93645.75;4990966;28;20430;-81
2021/06/05 09:58:32;;;;;;;2.08;1.27;;;;;;;24.88;38.13;93647.28;4990911;28;20046;-80
2021/06/05 10:01:13;;;;;;;5.53;2.65;;;;;;;24.78;37.67;93650.84;4985699;28;20054;-80
2021/06/05 10:03:40;;;;;;;1.73;0.98;;;;;;;24.69;38.04;93659.38;4990912;28;20046;-80
2021/06/05 10:06:18;;;;;;;2.38;1.42;;;;;;;25.11;38.40;93660.53;4990729;28;20497;-80
2021/06/05 10:08:47;;;;;;;1.60;1.00;;;;;;;25.56;37.57;93662.66;4991065;28;20039;-81
2021/06/05 10:11:21;;;;;;;3.95;1.80;;;;;;;26.00;37.34;93628.84;4990978;28;20046;-81
2021/06/05 10:14:01;;;;;;;2.67;1.30;;;;;;;26.67;35.79;93652.94;4987199;28;20042;-81
2021/06/05 10:16:28;;;;;;;4.18;0.90;;;;;;;27.14;33.97;93649.19;4971079;28;20054;-81
2021/06/05 10:19:01;;;;;;;2.47;1.38;;;;;;;27.50;33.73;93644.81;4971102;28;20491;-81
2021/06/05 10:21:35;;;;;;;1.65;1.00;;;;;;;27.70;33.97;93649.56;4971052;28;20043;-80
2021/06/05 10:24:21;;;;;;;2.22;0.90;;;;;;;27.88;29.85;93649.59;4971242;28;20085;-81
2021/06/05 10:26:48;;;;;;;4.78;1.42;;;;;;;28.27;32.14;93640.00;4971103;28;20043;-81
2021/06/05 10:29:22;;;;;;;1.67;0.90;;;;;;;28.34;31.07;93636.13;4979028;28;20057;-80
2021/06/05 10:31:50;;;;;;;2.00;1.20;;;;;;;28.53;27.83;93628.66;4990668;28;20426;-81
2021/06/05 10:34:22;;;;;;;3.58;1.05;;;;;;;28.62;29.07;93620.72;4990616;28;20046;-81
2021/06/05 10:36:52;;;;;;;1.90;1.13;;;;;;;28.83;28.97;93609.44;4990192;28;20047;-80
2021/06/05 10:39:25;;;;;;;1.33;0.73;;;;;;;28.93;29.29;93624.25;4990229;28;20050;-81
2021/06/05 10:41:55;;;;;;;1.60;0.88;;;;;;;28.79;28.64;93611.94;4990464;28;20042;-80
2021/06/05 10:44:22;;;;;;;2.67;1.27;;;;;;;29.24;26.43;93615.25;4990072;28;20054;-83
2021/06/05 10:46:56;;;;;;;1.30;0.70;;;;;;;29.20;27.33;93609.81;4990146;28;20133;-81
2021/06/05 10:49:30;;;;;;;1.98;0.93;;;;;;;29.18;27.35;93605.94;4990023;28;20048;-81
2021/06/05 10:52:06;;;;;;;1.38;1.00;;;;;;;28.73;26.23;93604.53;4989735;28;20046;-81
2021/06/05 10:54:39;;;;;;;1.33;0.73;;;;;;;29.17;28.49;93594.59;4989911;28;20054;-83
2021/06/05 10:57:21;;;;;;;3.40;1.10;;;;;;;29.27;29.02;93592.66;4989847;28;20056;-82
2021/06/05 10:59:52;;;;;;;3.55;0.90;;;;;;;29.28;27.48;93595.00;4990312;28;20057;-81
2021/06/05 11:02:35;;;;;;;1.70;0.82;;;;;;;29.38;25.64;93593.09;4990020;28;20043;-81
2021/06/05 11:05:03;;;;;;;2.58;1.08;;;;;;;29.50;26.43;93587.91;4989835;28;20402;-81
2021/06/05 11:07:32;;;;;;;2.17;1.20;;;;;;;29.79;26.34;93590.81;4989903;28;20042;-82
2021/06/05 11:10:02;;;;;;;3.05;0.80;;;;;;;29.83;27.24;93562.63;4989715;28;20046;-81
2021/06/05 11:12:48;;;;;;;2.25;1.10;;;;;;;29.75;25.47;93580.13;4990266;28;20045;-81
2021/06/05 11:15:51;;;;;;;1.13;0.77;;;;;;;29.82;27.33;93585.69;4989959;28;20038;-81
2021/06/05 11:18:30;;;;;;;1.67;0.70;;;;;;;29.82;25.98;93579.59;4989635;28;20093;-81
2021/06/05 11:20:57;;;;;;;3.30;1.15;;;;;;;29.90;25.73;93584.06;4989949;28;20709;-81
2021/06/05 11:23:30;;;;;;;1.35;0.60;;;;;;;29.92;25.89;93571.28;4989901;28;20498;-81
2021/06/05 11:26:19;;;;;;;0.98;0.63;;;;;;;30.17;24.12;93578.59;4989700;28;20050;-81
2021/06/05 11:28:49;;;;;;;1.83;1.02;;;;;;;30.27;25.67;93575.53;4989537;28;20042;-81
2021/06/05 11:31:35;;;;;;;2.00;0.70;;;;;;;30.35;25.20;93574.69;4989998;28;20071;-82
2021/06/05 11:34:02;;;;;;;1.70;0.68;;;;;;;29.85;23.79;93561.19;4990016;28;20398;-82
2021/06/05 11:36:43;;;;;;;1.42;0.60;;;;;;;29.91;25.43;93551.19;4989684;28;20054;-82
2021/06/05 11:39:31;;;;;;;1.65;0.75;;;;;;;29.93;27.16;93559.59;4990065;28;20046;-81
2021/06/05 11:42:00;;;;;;;1.55;0.82;;;;;;;29.86;26.11;93557.44;4989445;28;20042;-81
2021/06/05 11:44:38;;;;;;;1.52;1.13;;;;;;;29.93;25.72;93545.56;4989628;28;20515;-81
2021/06/05 11:47:36;;;;;;;1.48;0.70;;;;;;;30.26;23.30;93548.25;4989958;28;20078;-81